Time,TemperatureF,DewpointF,PressureIn,WindDirection,WindDirectionDegrees,WindSpeedMPH,WindSpeedGustMPH,Humidity,HourlyPrecipIn,Conditions,Clouds,dailyrainin,SolarRadiationWatts/m^2,SoftwareType,DateUTC
2013-05-20 00:02:00,71.0,69.0,-100.00,South,172,0.0,3.0,92,0.00,,,-99.99,0.000000,,2013-05-20 05:02:00,
2013-05-20 00:12:00,71.0,69.0,-100.00,South,172,0.0,3.0,92,0.00,,,-99.99,0.000000,,2013-05-20 05:12:00,
2013-05-20 00:32:00,70.0,68.0,-100.00,NE,41,0.0,0.0,95,0.00,,,-99.99,0.000000,,2013-05-20 05:32:00,
2013-05-20 00:42:00,70.0,68.0,-100.00,NE,41,0.0,0.0,95,0.00,,,-99.99,0.000000,,2013-05-20 05:42:00,
2013-05-20 00:52:00,70.0,68.0,-100.00,NE,41,0.0,0.0,95,0.00,,,-99.99,0.000000,,2013-05-20 05:52:00,
2013-05-20 01:01:00,70.0,68.0,-100.00,NE,41,0.0,0.0,95,0.00,,,-99.99,0.000000,,2013-05-20 06:01:00,
2013-05-20 01:11:00,70.0,68.0,-100.00,NE,41,0.0,0.0,95,0.00,,,-99.99,0.000000,,2013-05-20 06:11:00,
2013-05-20 01:32:00,69.0,68.0,-100.00,South,180,3.0,5.0,96,0.00,,,0.00,0.000000,,2013-05-20 06:32:00,
2013-05-20 01:42:00,69.0,68.0,-100.00,South,180,3.0,5.0,96,0.00,,,0.00,0.000000,,2013-05-20 06:42:00,
2013-05-20 01:52:00,69.0,68.0,-100.00,South,180,3.0,5.0,96,0.00,,,0.00,0.000000,,2013-05-20 06:52:00,
2013-05-20 02:02:00,69.0,68.0,-100.00,South,180,3.0,5.0,96,0.00,,,0.00,0.000000,,2013-05-20 07:02:00,
2013-05-20 02:12:00,69.0,68.0,-100.00,South,180,3.0,5.0,96,0.00,,,0.00,0.000000,,2013-05-20 07:12:00,
2013-05-20 02:42:00,70.0,68.0,-100.00,South,190,4.0,9.0,95,0.00,,,-99.99,0.000000,,2013-05-20 07:42:00,
2013-05-20 02:52:00,70.0,68.0,-100.00,South,190,4.0,9.0,95,0.00,,,-99.99,0.000000,,2013-05-20 07:52:00,
2013-05-20 03:01:00,70.0,68.0,-100.00,South,190,4.0,9.0,95,0.00,,,-99.99,0.000000,,2013-05-20 08:01:00,
2013-05-20 03:11:00,70.0,68.0,-100.00,South,190,4.0,9.0,95,0.00,,,-99.99,0.000000,,2013-05-20 08:11:00,
2013-05-20 03:42:00,71.0,70.0,-100.00,SSW,203,5.0,12.0,96,0.00,,,0.00,0.000000,,2013-05-20 08:42:00,
2013-05-20 03:52:00,71.0,70.0,-100.00,SSW,203,5.0,12.0,96,0.00,,,0.00,0.000000,,2013-05-20 08:52:00,
2013-05-20 04:02:00,71.0,70.0,-100.00,SSW,203,5.0,12.0,96,0.00,,,0.00,0.000000,,2013-05-20 09:02:00,
2013-05-20 04:12:00,71.0,70.0,-100.00,SSW,203,5.0,12.0,96,0.00,,,0.00,0.000000,,2013-05-20 09:12:00,
2013-05-20 04:43:00,70.0,69.0,-100.00,SW,235,1.0,11.0,96,0.00,,,0.00,0.000000,,2013-05-20 09:43:00,
2013-05-20 04:53:00,70.0,69.0,-100.00,SW,235,1.0,11.0,96,0.00,,,0.00,0.000000,,2013-05-20 09:53:00,
2013-05-20 05:03:00,70.0,69.0,-100.00,SW,235,1.0,11.0,96,0.00,,,0.00,0.000000,,2013-05-20 10:03:00,
2013-05-20 05:12:00,70.0,69.0,-100.00,SW,235,1.0,11.0,96,0.00,,,0.00,0.000000,,2013-05-20 10:12:00,
2013-05-20 05:33:00,68.0,67.0,-100.00,NNW,330,0.0,5.0,96,0.00,,,0.00,0.000000,,2013-05-20 10:33:00,
2013-05-20 05:42:00,68.0,67.0,-100.00,NNW,330,0.0,5.0,96,0.00,,,0.00,0.000000,,2013-05-20 10:42:00,
2013-05-20 05:52:00,68.0,67.0,-100.00,NNW,330,0.0,5.0,96,0.00,,,0.00,0.000000,,2013-05-20 10:52:00,
2013-05-20 06:02:00,68.0,67.0,-100.00,NNW,330,0.0,5.0,96,0.00,,,0.00,0.000000,,2013-05-20 11:02:00,
2013-05-20 06:12:00,68.0,67.0,-100.00,NNW,330,0.0,5.0,96,0.00,,,0.00,0.000000,,2013-05-20 11:12:00,
2013-05-20 06:42:00,67.0,66.0,-100.00,NE,40,1.0,3.0,96,0.00,,,0.00,3.000000,,2013-05-20 11:42:00,
2013-05-20 06:52:00,67.0,66.0,-100.00,NE,40,1.0,3.0,96,0.00,,,0.00,3.000000,,2013-05-20 11:52:00,
2013-05-20 07:01:00,67.0,66.0,-100.00,NE,40,1.0,3.0,96,0.00,,,0.00,3.000000,,2013-05-20 12:01:00,
2013-05-20 07:11:00,67.0,66.0,-100.00,NE,40,1.0,3.0,96,0.00,,,0.00,3.000000,,2013-05-20 12:11:00,
2013-05-20 07:42:00,70.0,69.0,-100.00,East,88,2.0,3.0,97,0.00,,,0.00,52.000000,,2013-05-20 12:42:00,
2013-05-20 07:52:00,70.0,69.0,-100.00,East,88,2.0,3.0,97,0.00,,,0.00,52.000000,,2013-05-20 12:52:00,
2013-05-20 08:01:00,70.0,69.0,-100.00,East,88,2.0,3.0,97,0.00,,,0.00,52.000000,,2013-05-20 13:01:00,
2013-05-20 08:11:00,70.0,69.0,-100.00,East,88,2.0,3.0,97,0.00,,,0.00,52.000000,,2013-05-20 13:11:00,
2013-05-20 08:42:00,78.0,70.0,-100.00,East,96,2.0,5.0,76,0.00,,,0.00,313.000000,,2013-05-20 13:42:00,
2013-05-20 08:52:00,78.0,70.0,-100.00,East,96,2.0,5.0,76,0.00,,,0.00,313.000000,,2013-05-20 13:52:00,
2013-05-20 09:01:00,78.0,70.0,-100.00,East,96,2.0,5.0,76,0.00,,,0.00,313.000000,,2013-05-20 14:01:00,
2013-05-20 09:11:00,78.0,70.0,-100.00,East,96,2.0,5.0,76,0.00,,,0.00,313.000000,,2013-05-20 14:11:00,
2013-05-20 09:32:00,82.0,69.0,-100.00,ESE,110,3.0,6.0,66,0.00,,,0.00,506.000000,,2013-05-20 14:32:00,
2013-05-20 09:42:00,82.0,69.0,-100.00,ESE,110,3.0,6.0,66,0.00,,,0.00,506.000000,,2013-05-20 14:42:00,
2013-05-20 09:52:00,82.0,69.0,-100.00,ESE,110,3.0,6.0,66,0.00,,,0.00,506.000000,,2013-05-20 14:52:00,
2013-05-20 10:01:00,82.0,69.0,-100.00,ESE,110,3.0,6.0,66,0.00,,,0.00,506.000000,,2013-05-20 15:01:00,
2013-05-20 10:11:00,82.0,69.0,-100.00,ESE,110,3.0,6.0,66,0.00,,,0.00,506.000000,,2013-05-20 15:11:00,
2013-05-20 10:42:00,82.0,69.0,-100.00,South,180,3.0,7.0,66,0.00,,,0.00,684.000000,,2013-05-20 15:42:00,
2013-05-20 10:53:00,82.0,69.0,-100.00,South,180,3.0,7.0,66,0.00,,,0.00,684.000000,,2013-05-20 15:53:00,
2013-05-20 11:03:00,82.0,69.0,-100.00,South,180,3.0,7.0,66,0.00,,,0.00,684.000000,,2013-05-20 16:03:00,
2013-05-20 11:12:00,82.0,69.0,-100.00,South,180,3.0,7.0,66,0.00,,,0.00,684.000000,,2013-05-20 16:12:00,
2013-05-20 11:33:00,83.0,69.0,-100.00,East,94,3.0,9.0,63,0.00,,,0.00,554.000000,,2013-05-20 16:33:00,
2013-05-20 11:42:00,83.0,69.0,-100.00,East,94,3.0,9.0,63,0.00,,,0.00,554.000000,,2013-05-20 16:42:00,
2013-05-20 11:53:00,83.0,69.0,-100.00,East,94,3.0,9.0,63,0.00,,,0.00,554.000000,,2013-05-20 16:53:00,
2013-05-20 12:02:00,83.0,69.0,-100.00,East,94,3.0,9.0,63,0.00,,,0.00,554.000000,,2013-05-20 17:02:00,
2013-05-20 12:12:00,83.0,69.0,-100.00,East,94,3.0,9.0,63,0.00,,,0.00,554.000000,,2013-05-20 17:12:00,
2013-05-20 12:45:00,86.0,69.0,-100.00,East,98,3.0,10.0,57,0.00,,,0.00,637.000000,,2013-05-20 17:45:00,
2013-05-20 12:53:00,86.0,69.0,-100.00,East,98,3.0,10.0,57,0.00,,,0.00,637.000000,,2013-05-20 17:53:00,
2013-05-20 13:02:00,86.0,69.0,-100.00,East,98,3.0,10.0,57,0.00,,,0.00,637.000000,,2013-05-20 18:02:00,
2013-05-20 13:12:00,86.0,69.0,-100.00,East,98,3.0,10.0,57,0.00,,,0.00,637.000000,,2013-05-20 18:12:00,
2013-05-20 13:42:00,90.0,67.0,-100.00,SE,135,4.0,10.0,47,0.00,,,0.00,781.000000,,2013-05-20 18:42:00,
2013-05-20 13:55:00,90.0,67.0,-100.00,SE,135,4.0,10.0,47,0.00,,,0.00,781.000000,,2013-05-20 18:55:00,
2013-05-20 14:04:00,90.0,67.0,-100.00,SE,135,4.0,10.0,47,0.00,,,0.00,781.000000,,2013-05-20 19:04:00,
2013-05-20 14:11:00,90.0,67.0,-100.00,SE,135,4.0,10.0,47,0.00,,,0.00,781.000000,,2013-05-20 19:11:00,
2013-05-20 14:42:00,93.0,67.0,-100.00,SSE,152,3.0,7.0,43,0.00,,,0.00,837.000000,,2013-05-20 19:42:00,
2013-05-20 14:52:00,93.0,67.0,-100.00,SSE,152,3.0,7.0,43,0.00,,,0.00,837.000000,,2013-05-20 19:52:00,
2013-05-20 15:01:00,93.0,67.0,-100.00,SSE,152,3.0,7.0,43,0.00,,,0.00,837.000000,,2013-05-20 20:01:00,
2013-05-20 15:12:00,93.0,67.0,-100.00,SSE,152,3.0,7.0,43,0.00,,,0.00,837.000000,,2013-05-20 20:12:00,
2013-05-20 15:42:00,89.0,67.0,-100.00,SE,134,2.0,9.0,49,0.00,,,0.00,504.000000,,2013-05-20 20:42:00,
2013-05-20 15:52:00,89.0,67.0,-100.00,SE,134,2.0,9.0,49,0.00,,,0.00,504.000000,,2013-05-20 20:52:00,
2013-05-20 16:01:00,89.0,67.0,-100.00,SE,134,2.0,9.0,49,0.00,,,0.00,504.000000,,2013-05-20 21:01:00,
2013-05-20 16:11:00,89.0,67.0,-100.00,SE,134,2.0,9.0,49,0.00,,,0.00,504.000000,,2013-05-20 21:11:00,
2013-05-20 16:43:00,91.0,67.0,-100.00,South,169,2.0,8.0,46,0.00,,,0.00,473.000000,,2013-05-20 21:43:00,
2013-05-20 16:53:00,91.0,67.0,-100.00,South,169,2.0,8.0,46,0.00,,,0.00,473.000000,,2013-05-20 21:53:00,
2013-05-20 17:02:00,91.0,67.0,-100.00,South,169,2.0,8.0,46,0.00,,,0.00,473.000000,,2013-05-20 22:02:00,
2013-05-20 17:12:00,91.0,67.0,-100.00,South,169,2.0,8.0,46,0.00,,,0.00,473.000000,,2013-05-20 22:12:00,
2013-05-20 17:42:00,89.0,69.0,-100.00,SE,138,3.0,7.0,52,0.00,,,0.00,403.000000,,2013-05-20 22:42:00,
2013-05-20 17:52:00,89.0,69.0,-100.00,SE,138,3.0,7.0,52,0.00,,,0.00,403.000000,,2013-05-20 22:52:00,
2013-05-20 18:03:00,89.0,69.0,-100.00,SE,138,3.0,7.0,52,0.00,,,0.00,403.000000,,2013-05-20 23:03:00,
2013-05-20 18:12:00,89.0,69.0,-100.00,SE,138,3.0,7.0,52,0.00,,,0.00,403.000000,,2013-05-20 23:12:00,
2013-05-20 18:42:00,81.0,73.0,-100.00,South,174,3.0,7.0,77,0.01,,,0.01,130.000000,,2013-05-20 23:42:00,
2013-05-20 18:53:00,81.0,73.0,-100.00,South,174,3.0,7.0,77,0.01,,,0.01,130.000000,,2013-05-20 23:53:00,
2013-05-20 19:01:00,81.0,73.0,-100.00,South,174,3.0,7.0,77,0.01,,,0.01,130.000000,,2013-05-21 00:01:00,
2013-05-20 19:11:00,81.0,73.0,-100.00,South,174,3.0,7.0,77,0.01,,,0.01,130.000000,,2013-05-21 00:11:00,
2013-05-20 19:42:00,80.0,70.0,-100.00,SSW,197,3.0,8.0,71,0.00,,,0.01,44.000000,,2013-05-21 00:42:00,
2013-05-20 19:52:00,80.0,70.0,-100.00,SSW,197,3.0,8.0,71,0.00,,,0.01,44.000000,,2013-05-21 00:52:00,
2013-05-20 20:01:00,80.0,70.0,-100.00,SSW,197,3.0,8.0,71,0.00,,,0.01,44.000000,,2013-05-21 01:01:00,
2013-05-20 20:11:00,80.0,70.0,-100.00,SSW,197,3.0,8.0,71,0.00,,,0.01,44.000000,,2013-05-21 01:11:00,
2013-05-20 20:42:00,77.0,68.0,-100.00,South,190,2.0,7.0,74,0.00,,,0.01,4.000000,,2013-05-21 01:42:00,
2013-05-20 20:53:00,77.0,68.0,-100.00,South,190,2.0,7.0,74,0.00,,,0.01,4.000000,,2013-05-21 01:53:00,
2013-05-20 21:02:00,77.0,68.0,-100.00,South,190,2.0,7.0,74,0.00,,,0.01,4.000000,,2013-05-21 02:02:00,
2013-05-20 21:11:00,77.0,68.0,-100.00,South,190,2.0,7.0,74,0.00,,,0.01,4.000000,,2013-05-21 02:11:00,
2013-05-20 21:32:00,74.0,67.0,-100.00,South,190,2.0,5.0,79,0.00,,,0.01,0.000000,,2013-05-21 02:32:00,
2013-05-20 21:42:00,74.0,67.0,-100.00,South,190,2.0,5.0,79,0.00,,,0.01,0.000000,,2013-05-21 02:42:00,
2013-05-20 21:52:00,74.0,67.0,-100.00,South,190,2.0,5.0,79,0.00,,,0.01,0.000000,,2013-05-21 02:52:00,
2013-05-20 22:02:00,74.0,67.0,-100.00,South,190,2.0,5.0,79,0.00,,,0.01,0.000000,,2013-05-21 03:02:00,
2013-05-20 22:11:00,74.0,67.0,-100.00,South,190,2.0,5.0,79,0.00,,,0.01,0.000000,,2013-05-21 03:11:00,
2013-05-20 22:33:00,72.0,67.0,-100.00,SSW,192,3.0,6.0,83,0.00,,,0.01,0.000000,,2013-05-21 03:33:00,
2013-05-20 22:43:00,72.0,67.0,-100.00,SSW,192,3.0,6.0,83,0.00,,,0.01,0.000000,,2013-05-21 03:43:00,
2013-05-20 22:53:00,72.0,67.0,-100.00,SSW,192,3.0,6.0,83,0.00,,,0.01,0.000000,,2013-05-21 03:53:00,
2013-05-20 23:03:00,72.0,67.0,-100.00,SSW,192,3.0,6.0,83,0.00,,,0.01,0.000000,,2013-05-21 04:03:00,
2013-05-20 23:13:00,72.0,67.0,-100.00,SSW,192,3.0,6.0,83,0.00,,,0.01,0.000000,,2013-05-21 04:13:00,
2013-05-20 23:42:00,71.0,67.0,-100.00,SSW,204,2.0,5.0,88,0.00,,,0.01,0.000000,,2013-05-21 04:42:00,
2013-05-20 23:53:00,71.0,67.0,-100.00,SSW,204,2.0,5.0,88,0.00,,,0.01,0.000000,,2013-05-21 04:53:00,